createdAt,value
2023-03-20T00:00:04.630Z,98.79
2023-03-20T00:02:08.302Z,99.19
2023-03-20T00:04:12.654Z,97.34
2023-03-20T00:06:19.468Z,97.17
2023-03-20T00:08:22.579Z,98.48
2023-03-20T00:10:29.234Z,98.20
2023-03-20T00:12:32.805Z,98.63
2023-03-20T00:14:37.358Z,98.39
2023-03-20T00:16:41.644Z,100.00
2023-03-20T00:18:45.306Z,99.33
2023-03-20T00:20:48.669Z,98.79
2023-03-20T00:22:52.217Z,98.38
2023-03-20T00:24:56.015Z,100.00
2023-03-20T00:26:59.038Z,98.64
2023-03-20T00:29:04.477Z,98.01
2023-03-20T00:31:17.082Z,99.23
2023-03-20T00:33:20.142Z,99.83
2023-03-20T00:35:26.277Z,99.12
2023-03-20T00:37:29.595Z,98.79
2023-03-20T00:39:34.388Z,99.70
2023-03-20T00:41:42.988Z,98.61
2023-03-20T00:43:46.567Z,99.35
2023-03-20T00:45:49.644Z,100.00
2023-03-20T00:47:54.712Z,98.91
2023-03-20T00:49:58.532Z,99.83
2023-03-20T00:52:03.608Z,99.02
2023-03-20T00:54:10.844Z,97.95
2023-03-20T00:56:30.236Z,98.04
2023-03-20T00:58:33.279Z,99.61
2023-03-20T01:00:39.641Z,99.76
2023-03-20T01:02:42.813Z,98.59
2023-03-20T01:04:48.708Z,98.05
2023-03-20T01:06:52.582Z,99.80
2023-03-20T01:08:57.708Z,98.92
2023-03-20T01:11:02.062Z,98.71
2023-03-20T01:13:05.251Z,99.47
2023-03-20T01:15:17.737Z,99.01
2023-03-20T01:17:23.112Z,99.15
2023-03-20T01:19:26.349Z,97.62
2023-03-20T01:21:30.935Z,98.57
2023-03-20T01:23:34.047Z,98.69
2023-03-20T01:25:37.779Z,99.91
2023-03-20T01:27:41.188Z,99.38
2023-03-20T01:29:44.696Z,97.93
2023-03-20T01:31:49.171Z,98.84
2023-03-20T01:33:53.704Z,99.40
2023-03-20T01:35:57.581Z,99.03
2023-03-20T01:38:02.776Z,98.56
2023-03-20T01:40:15.348Z,98.35
2023-03-20T01:42:19.380Z,98.03
2023-03-20T01:44:24.067Z,99.17
2023-03-20T01:46:33.087Z,98.88
2023-03-20T01:48:58.985Z,97.53
2023-03-20T01:51:02.612Z,99.27
2023-03-20T01:53:11.165Z,98.66
2023-03-20T01:55:19.455Z,98.71
2023-03-20T01:57:28.412Z,99.41
2023-03-20T01:59:34.504Z,100.00
2023-03-20T02:01:38.186Z,99.21
2023-03-20T02:03:45.086Z,99.32
2023-03-20T02:06:07.846Z,99.73
2023-03-20T02:08:42.694Z,98.74
2023-03-20T02:10:47.478Z,99.27
2023-03-20T02:13:00.496Z,100.00
2023-03-20T02:15:09.414Z,98.37
2023-03-20T02:17:42.635Z,100.00
2023-03-20T02:19:54.862Z,100.00
2023-03-20T02:22:16.913Z,99.51
2023-03-20T02:24:47.401Z,99.50
2023-03-20T02:27:01.147Z,98.90
2023-03-20T02:29:38.039Z,100.00
2023-03-20T02:32:09.187Z,98.64
2023-03-20T02:34:33.866Z,100.00
2023-03-20T02:37:16.463Z,100.00
2023-03-20T02:39:53.776Z,100.00
2023-03-20T02:42:03.435Z,99.58
2023-03-20T02:44:10.532Z,99.43
2023-03-20T02:46:20.956Z,99.08
2023-03-20T02:48:33.187Z,100.00
2023-03-20T02:50:41.606Z,100.00
2023-03-20T02:52:50.144Z,99.84
2023-03-20T02:54:58.885Z,99.66
2023-03-20T02:57:05.931Z,99.02
2023-03-20T02:59:13.692Z,99.30
2023-03-20T03:01:20.288Z,99.43
2023-03-20T03:03:27.805Z,100.00
2023-03-20T03:05:36.560Z,100.00
2023-03-20T03:07:42.258Z,100.00
2023-03-20T03:09:51.428Z,100.00
2023-03-20T03:12:00.381Z,100.00
2023-03-20T03:14:03.873Z,100.00
2023-03-20T03:16:10.323Z,99.77
2023-03-20T03:18:16.496Z,99.20
2023-03-20T03:20:22.664Z,100.00
2023-03-20T03:22:25.891Z,99.96
2023-03-20T03:24:40.441Z,99.60
2023-03-20T03:26:45.809Z,100.00
2023-03-20T03:28:52.871Z,100.00
2023-03-20T03:30:57.677Z,99.58
2023-03-20T03:33:11.113Z,100.00
2023-03-20T03:35:18.798Z,100.00
2023-03-20T03:37:28.262Z,100.00
2023-03-20T03:39:37.854Z,98.82
2023-03-20T03:41:43.190Z,100.00
2023-03-20T03:43:53.162Z,98.68
2023-03-20T03:45:59.078Z,99.90
2023-03-20T03:48:06.371Z,98.74
2023-03-20T03:50:14.088Z,100.00
2023-03-20T03:52:21.291Z,99.01
2023-03-20T03:54:26.612Z,99.74
2023-03-20T03:56:50.599Z,99.95
2023-03-20T03:58:58.028Z,99.49
2023-03-20T04:01:02.525Z,99.93
2023-03-20T04:03:07.297Z,99.21
2023-03-20T04:05:10.830Z,100.00
2023-03-20T04:07:14.796Z,99.41
2023-03-20T04:09:17.880Z,100.00
2023-03-20T04:11:22.446Z,99.47
2023-03-20T04:13:25.661Z,99.82
2023-03-20T04:15:30.486Z,100.00
2023-03-20T04:17:34.087Z,100.00
2023-03-20T04:19:37.566Z,100.00
2023-03-20T04:21:40.857Z,100.00
2023-03-20T04:23:44.571Z,99.98
2023-03-20T04:25:47.832Z,99.53
2023-03-20T04:27:52.291Z,100.00
2023-03-20T04:30:14.881Z,100.00
2023-03-20T04:32:38.046Z,99.79
2023-03-20T04:35:10.447Z,100.00
2023-03-20T04:37:27.782Z,100.00
2023-03-20T04:39:37.678Z,98.49
2023-03-20T04:41:44.154Z,99.01
2023-03-20T04:43:47.346Z,98.54
2023-03-20T04:45:50.501Z,98.81
2023-03-20T04:47:55.105Z,99.12
2023-03-20T04:49:59.376Z,100.00
2023-03-20T04:52:02.955Z,100.00
2023-03-20T04:54:13.335Z,100.00
2023-03-20T04:56:16.438Z,99.18
2023-03-20T04:58:19.534Z,99.80
2023-03-20T05:00:23.486Z,100.00
2023-03-20T05:02:27.212Z,98.73
2023-03-20T05:04:31.917Z,99.81
2023-03-20T05:06:36.405Z,100.00
2023-03-20T05:08:39.491Z,98.52
2023-03-20T05:10:42.567Z,99.24
2023-03-20T05:13:07.132Z,98.54
2023-03-20T05:15:36.830Z,98.30
2023-03-20T05:17:54.917Z,99.62
2023-03-20T05:20:31.528Z,99.65
2023-03-20T05:23:00.723Z,98.68
2023-03-20T05:25:30.004Z,99.47
2023-03-20T05:27:45.808Z,98.98
2023-03-20T05:30:06.028Z,99.84
2023-03-20T05:32:28.012Z,98.15
2023-03-20T05:34:43.581Z,99.39
2023-03-20T05:36:54.976Z,100.00
2023-03-20T05:39:16.676Z,99.57
2023-03-20T05:41:43.488Z,99.22
2023-03-20T05:44:07.220Z,98.92
2023-03-20T05:46:31.330Z,98.92
2023-03-20T05:48:57.507Z,97.98
2023-03-20T05:51:20.586Z,97.95
2023-03-20T05:53:31.055Z,98.26
2023-03-20T05:55:48.090Z,98.24
2023-03-20T05:58:11.438Z,99.01
2023-03-20T06:00:33.331Z,98.39
2023-03-20T06:03:02.205Z,99.45
2023-03-20T06:05:25.574Z,98.65
2023-03-20T06:07:29.275Z,99.59
2023-03-20T06:09:38.314Z,99.54
2023-03-20T06:11:46.381Z,99.10
2023-03-20T06:13:54.620Z,98.27
2023-03-20T06:15:59.011Z,98.58
2023-03-20T06:18:02.183Z,98.55
2023-03-20T06:20:05.940Z,99.07
2023-03-20T06:22:09.262Z,97.61
2023-03-20T06:24:12.343Z,98.65
2023-03-20T06:26:16.983Z,99.25
2023-03-20T06:28:31.768Z,98.63
2023-03-20T06:30:40.834Z,97.93
2023-03-20T06:32:48.860Z,97.77
2023-03-20T06:34:53.429Z,97.31
2023-03-20T06:36:56.977Z,97.98
2023-03-20T06:39:00.589Z,98.53
2023-03-20T06:41:04.868Z,99.09
2023-03-20T06:43:12.306Z,100.00
2023-03-20T06:45:23.014Z,99.42
2023-03-20T06:47:29.526Z,99.55
2023-03-20T06:49:33.218Z,99.38
2023-03-20T06:51:37.271Z,99.02
2023-03-20T06:53:44.000Z,98.11
2023-03-20T06:55:53.091Z,98.26
2023-03-20T06:57:57.498Z,97.92
2023-03-20T07:00:02.112Z,96.13
2023-03-20T07:02:06.211Z,95.92
2023-03-20T07:04:10.063Z,95.82
2023-03-20T07:06:19.844Z,96.34
2023-03-20T07:08:22.997Z,95.48
2023-03-20T07:10:26.530Z,95.62
2023-03-20T07:12:29.817Z,95.46
2023-03-20T07:14:36.040Z,94.08
2023-03-20T07:16:47.125Z,93.31
2023-03-20T07:18:50.593Z,93.15
2023-03-20T07:20:53.970Z,93.21
2023-03-20T07:22:57.456Z,93.88
2023-03-20T07:25:03.233Z,93.97
2023-03-20T07:27:06.614Z,93.74
2023-03-20T07:29:11.000Z,93.43
2023-03-20T07:31:23.231Z,94.26
2023-03-20T07:33:33.090Z,93.48
2023-03-20T07:35:36.953Z,92.34
2023-03-20T07:37:40.601Z,94.03
2023-03-20T07:39:43.678Z,91.48
2023-03-20T07:42:05.503Z,93.41
2023-03-20T07:44:19.377Z,94.64
2023-03-20T07:46:28.883Z,93.73
2023-03-20T07:48:33.722Z,94.57
2023-03-20T07:50:37.267Z,94.77
2023-03-20T07:52:41.046Z,94.74
2023-03-20T07:54:44.309Z,92.06
2023-03-20T07:56:47.507Z,93.47
2023-03-20T07:58:50.613Z,92.61
2023-03-20T08:00:54.182Z,93.19
2023-03-20T08:02:58.267Z,93.78
2023-03-20T08:05:02.799Z,93.07
2023-03-20T08:07:06.102Z,94.05
2023-03-20T08:09:09.472Z,93.41
2023-03-20T08:11:12.691Z,93.51
2023-03-20T08:13:16.396Z,92.11
2023-03-20T08:15:22.253Z,91.76
2023-03-20T08:17:25.537Z,91.80
2023-03-20T08:19:28.824Z,92.14
2023-03-20T08:21:34.124Z,92.89
2023-03-20T08:23:39.600Z,92.31
2023-03-20T08:25:42.744Z,91.37
2023-03-20T08:27:46.846Z,90.57
2023-03-20T08:29:50.006Z,90.69
2023-03-20T08:31:53.076Z,90.93
2023-03-20T08:33:56.999Z,89.78
2023-03-20T08:36:00.682Z,89.61
2023-03-20T08:38:05.527Z,89.75
2023-03-20T08:40:09.715Z,90.16
2023-03-20T08:42:12.833Z,90.33
2023-03-20T08:44:16.461Z,90.82
2023-03-20T08:46:19.693Z,88.91
2023-03-20T08:48:23.105Z,89.75
2023-03-20T08:50:26.297Z,89.83
2023-03-20T08:52:29.435Z,89.84
2023-03-20T08:54:33.874Z,89.43
2023-03-20T08:56:37.074Z,88.82
2023-03-20T08:58:40.417Z,89.18
2023-03-20T09:00:43.701Z,88.54
2023-03-20T09:02:46.880Z,88.25
2023-03-20T09:04:50.058Z,87.97
2023-03-20T09:06:53.337Z,88.15
2023-03-20T09:08:57.115Z,88.47
2023-03-20T09:11:01.934Z,88.15
2023-03-20T09:13:23.443Z,88.31
2023-03-20T09:15:28.674Z,87.68
2023-03-20T09:17:32.335Z,88.09
2023-03-20T09:19:37.824Z,87.70
2023-03-20T09:21:41.041Z,86.71
2023-03-20T09:23:44.240Z,85.53
2023-03-20T09:25:48.202Z,85.14
2023-03-20T09:27:55.332Z,85.08
2023-03-20T09:29:58.502Z,83.95
2023-03-20T09:32:01.724Z,84.64
2023-03-20T09:34:05.117Z,83.13
2023-03-20T09:36:11.649Z,82.78
2023-03-20T09:38:15.539Z,83.52
2023-03-20T09:40:26.016Z,82.57
2023-03-20T09:42:35.834Z,82.49
2023-03-20T09:44:50.251Z,82.59
2023-03-20T09:47:18.480Z,83.78
2023-03-20T09:49:29.070Z,83.20
2023-03-20T09:51:37.421Z,82.65
2023-03-20T09:53:42.517Z,81.62
2023-03-20T09:55:46.194Z,81.30
2023-03-20T09:57:51.524Z,80.27
2023-03-20T09:59:59.785Z,80.62
2023-03-20T10:02:07.750Z,82.16
2023-03-20T10:04:12.311Z,81.82
2023-03-20T10:06:18.049Z,82.61
2023-03-20T10:08:23.659Z,81.06
2023-03-20T10:10:33.114Z,80.83
2023-03-20T10:12:47.996Z,79.93
2023-03-20T10:14:57.884Z,81.42
2023-03-20T10:17:09.715Z,80.46
2023-03-20T10:19:18.142Z,80.54
2023-03-20T10:21:24.962Z,79.60
2023-03-20T10:23:34.796Z,80.37
2023-03-20T10:25:42.171Z,80.31
2023-03-20T10:27:47.608Z,79.30
2023-03-20T10:29:55.748Z,80.90
2023-03-20T10:32:04.653Z,78.63
2023-03-20T10:34:19.562Z,78.55
2023-03-20T10:36:34.235Z,77.94
2023-03-20T10:38:41.574Z,77.71
2023-03-20T10:40:44.828Z,78.90
2023-03-20T10:42:49.260Z,80.46
2023-03-20T10:44:55.824Z,76.55
2023-03-20T10:47:02.335Z,75.73
2023-03-20T10:49:09.055Z,76.15
2023-03-20T10:51:16.398Z,74.02
2023-03-20T10:53:25.706Z,74.61
2023-03-20T10:55:30.512Z,76.25
2023-03-20T10:57:37.388Z,77.60
2023-03-20T10:59:43.353Z,77.63
2023-03-20T11:01:46.625Z,76.21
2023-03-20T11:03:51.283Z,77.05
2023-03-20T11:06:08.814Z,75.75
2023-03-20T11:08:14.589Z,77.78
2023-03-20T11:10:18.024Z,76.01
2023-03-20T11:12:21.700Z,77.50
2023-03-20T11:14:27.115Z,79.48
2023-03-20T11:16:32.996Z,78.07
2023-03-20T11:18:36.170Z,77.28
2023-03-20T11:20:46.458Z,78.03
2023-03-20T11:22:50.171Z,78.35
2023-03-20T11:24:54.163Z,78.59
2023-03-20T11:27:06.963Z,78.13
2023-03-20T11:29:21.086Z,79.27
2023-03-20T11:31:27.269Z,78.82
2023-03-20T11:33:31.348Z,78.75
2023-03-20T11:35:36.122Z,79.98
2023-03-20T11:37:45.696Z,78.35
2023-03-20T11:39:58.231Z,79.39
2023-03-20T11:42:02.931Z,79.39
2023-03-20T11:44:07.093Z,78.98
2023-03-20T11:46:13.750Z,79.85
2023-03-20T11:48:20.438Z,79.72
2023-03-20T11:50:28.724Z,78.60
2023-03-20T11:52:33.723Z,79.31
2023-03-20T11:54:38.679Z,77.91
2023-03-20T11:56:52.739Z,78.59
2023-03-20T11:58:57.790Z,76.96
2023-03-20T12:01:02.500Z,75.22
2023-03-20T12:03:05.698Z,76.32
2023-03-20T12:05:30.587Z,74.71
2023-03-20T12:07:35.144Z,75.08
2023-03-20T12:09:44.225Z,76.30
2023-03-20T12:11:51.335Z,73.72
2023-03-20T12:13:54.924Z,73.16
2023-03-20T12:16:00.409Z,73.02
2023-03-20T12:18:07.543Z,74.27
2023-03-20T12:20:21.393Z,73.12
2023-03-20T12:22:27.618Z,75.02
2023-03-20T12:24:35.790Z,75.56
2023-03-20T12:26:45.518Z,74.26
2023-03-20T12:28:51.987Z,74.82
2023-03-20T12:31:07.405Z,73.25
2023-03-20T12:33:15.553Z,72.82
2023-03-20T12:35:20.735Z,73.26
2023-03-20T12:37:24.195Z,74.46
2023-03-20T12:39:34.340Z,73.05
2023-03-20T12:41:44.547Z,73.93
2023-03-20T12:44:06.151Z,74.07
2023-03-20T12:46:14.086Z,75.00
2023-03-20T12:48:46.909Z,74.31
2023-03-20T12:50:53.721Z,73.92
2023-03-20T12:53:08.134Z,72.86
2023-03-20T12:55:22.747Z,74.13
2023-03-20T12:57:32.156Z,73.86
2023-03-20T12:59:48.818Z,73.34
2023-03-20T13:01:54.192Z,75.29
2023-03-20T13:04:11.533Z,73.33
2023-03-20T13:06:16.752Z,70.45
2023-03-20T13:08:34.547Z,72.55
2023-03-20T13:10:41.655Z,71.93
2023-03-20T13:12:53.325Z,72.95
2023-03-20T13:15:03.636Z,73.16
2023-03-20T13:17:13.557Z,72.61
2023-03-20T13:19:25.631Z,69.68
2023-03-20T13:21:38.008Z,70.15
2023-03-20T13:23:45.761Z,71.04
2023-03-20T13:25:57.496Z,71.22
2023-03-20T13:28:07.114Z,70.92
2023-03-20T13:30:20.628Z,70.46
2023-03-20T13:32:32.293Z,70.02
2023-03-20T13:34:49.217Z,69.65
2023-03-20T13:37:19.937Z,70.20
2023-03-20T13:39:30.762Z,70.34
2023-03-20T13:41:35.268Z,70.81
2023-03-20T13:43:43.288Z,70.10
2023-03-20T13:45:47.504Z,68.88
2023-03-20T13:47:51.241Z,70.31
2023-03-20T13:49:58.727Z,70.25
2023-03-20T13:52:06.106Z,70.27
2023-03-20T13:54:17.343Z,70.95
2023-03-20T13:56:27.346Z,70.00
2023-03-20T13:58:45.585Z,71.77
2023-03-20T14:00:53.184Z,70.41
2023-03-20T14:03:12.462Z,72.69
2023-03-20T14:05:19.063Z,71.14
2023-03-20T14:07:29.690Z,72.47
2023-03-20T14:09:34.557Z,71.76
2023-03-20T14:11:38.996Z,70.56
2023-03-20T14:13:47.378Z,70.47
2023-03-20T14:15:55.316Z,71.85
2023-03-20T14:17:58.598Z,70.22
2023-03-20T14:20:14.021Z,71.77
2023-03-20T14:22:18.806Z,70.40
2023-03-20T14:24:22.460Z,72.72
2023-03-20T14:26:28.845Z,71.13
2023-03-20T14:28:35.546Z,71.29
2023-03-20T14:30:42.637Z,71.97
2023-03-20T14:32:53.958Z,70.77
2023-03-20T14:35:01.921Z,72.18
2023-03-20T14:37:05.831Z,72.04
2023-03-20T14:39:16.914Z,71.14
2023-03-20T14:41:24.168Z,72.83
2023-03-20T14:43:39.678Z,69.93
2023-03-20T14:45:48.415Z,73.35
2023-03-20T14:47:57.309Z,73.21
2023-03-20T14:50:05.024Z,72.69
2023-03-20T14:52:24.306Z,72.77
2023-03-20T14:54:29.581Z,72.61
2023-03-20T14:56:34.649Z,72.68
2023-03-20T14:58:54.558Z,73.96
2023-03-20T15:01:03.424Z,72.23
2023-03-20T15:03:08.923Z,70.80
2023-03-20T15:05:24.463Z,71.81
2023-03-20T15:07:30.352Z,70.73
2023-03-20T15:09:37.347Z,71.22
2023-03-20T15:11:41.786Z,71.65
2023-03-20T15:13:45.645Z,71.93
2023-03-20T15:15:56.950Z,71.07
2023-03-20T15:18:07.820Z,71.05
2023-03-20T15:20:17.250Z,72.51
2023-03-20T15:22:22.093Z,71.99
2023-03-20T15:24:27.251Z,71.79
2023-03-20T15:26:33.034Z,71.87
2023-03-20T15:28:38.442Z,71.31
2023-03-20T15:30:41.951Z,70.95
2023-03-20T15:32:45.933Z,70.89
2023-03-20T15:34:51.398Z,71.52
2023-03-20T15:36:57.190Z,70.88
2023-03-20T15:39:08.233Z,70.05
2023-03-20T15:41:26.444Z,70.43
2023-03-20T15:43:29.594Z,70.18
2023-03-20T15:45:36.301Z,70.88
2023-03-20T15:47:43.775Z,71.26
2023-03-20T15:49:53.405Z,71.22
2023-03-20T15:51:59.419Z,69.82
2023-03-20T15:54:07.792Z,69.52
2023-03-20T15:56:20.533Z,69.61
2023-03-20T15:58:24.772Z,71.20
2023-03-20T16:00:31.290Z,69.63
2023-03-20T16:02:36.482Z,71.02
2023-03-20T16:04:45.490Z,71.87
2023-03-20T16:06:54.099Z,71.66
2023-03-20T16:08:59.600Z,71.29
2023-03-20T16:11:05.586Z,71.63
2023-03-20T16:13:11.584Z,70.72
2023-03-20T16:15:16.997Z,71.95
2023-03-20T16:17:21.555Z,71.23
2023-03-20T16:19:26.298Z,71.50
2023-03-20T16:21:31.804Z,71.16
2023-03-20T16:23:40.141Z,71.71
2023-03-20T16:25:43.412Z,70.31
2023-03-20T16:27:48.128Z,70.50
2023-03-20T16:29:52.401Z,70.31
2023-03-20T16:31:58.643Z,71.04
2023-03-20T16:34:02.760Z,71.58
2023-03-20T16:36:06.761Z,71.42
2023-03-20T16:38:25.439Z,72.10
2023-03-20T16:40:34.325Z,71.88
2023-03-20T16:42:39.176Z,72.03
2023-03-20T16:44:43.156Z,71.01
2023-03-20T16:46:59.436Z,70.21
2023-03-20T16:49:39.042Z,71.04
2023-03-20T16:51:44.542Z,69.82
2023-03-20T16:53:49.257Z,69.40
2023-03-20T16:55:57.533Z,70.93
2023-03-20T16:58:03.796Z,68.64
2023-03-20T17:00:09.492Z,69.84
2023-03-20T17:02:14.099Z,70.83
2023-03-20T17:04:20.452Z,70.01
2023-03-20T17:06:35.820Z,70.44
2023-03-20T17:08:42.714Z,71.44
2023-03-20T17:10:47.330Z,71.45
2023-03-20T17:12:52.971Z,69.92
2023-03-20T17:14:56.612Z,70.91
2023-03-20T17:17:00.338Z,71.33
2023-03-20T17:19:06.073Z,71.39
2023-03-20T17:21:11.110Z,71.32
2023-03-20T17:23:16.304Z,71.12
2023-03-20T17:25:19.849Z,72.07
2023-03-20T17:27:23.381Z,71.51
2023-03-20T17:29:28.028Z,72.09
2023-03-20T17:31:31.837Z,71.91
2023-03-20T17:33:36.716Z,71.75
2023-03-20T17:35:40.182Z,71.61
2023-03-20T17:37:43.464Z,72.13
2023-03-20T17:39:46.748Z,72.10
2023-03-20T17:41:50.106Z,72.23
2023-03-20T17:43:53.511Z,72.05
2023-03-20T17:45:58.114Z,72.08
2023-03-20T17:48:01.259Z,72.27
2023-03-20T17:50:04.817Z,72.32
2023-03-20T17:52:11.630Z,72.30
2023-03-20T17:54:14.744Z,72.31
2023-03-20T17:56:17.888Z,73.29
2023-03-20T17:58:23.942Z,72.51
2023-03-20T18:00:27.377Z,73.01
2023-03-20T18:02:32.134Z,72.85
2023-03-20T18:04:35.933Z,72.56
2023-03-20T18:06:39.323Z,73.17
2023-03-20T18:08:42.494Z,73.55
2023-03-20T18:10:45.635Z,73.34
2023-03-20T18:12:48.774Z,73.62
2023-03-20T18:14:51.814Z,74.09
2023-03-20T18:16:54.901Z,74.48
2023-03-20T18:19:00.461Z,74.85
2023-03-20T18:21:03.672Z,75.30
2023-03-20T18:23:06.767Z,75.97
2023-03-20T18:25:10.743Z,75.92
2023-03-20T18:27:13.862Z,76.66
2023-03-20T18:29:17.006Z,75.72
2023-03-20T18:31:20.665Z,76.50
2023-03-20T18:33:27.672Z,76.56
2023-03-20T18:35:32.906Z,76.32
2023-03-20T18:37:36.441Z,75.59
2023-03-20T18:39:39.674Z,75.86
2023-03-20T18:41:42.823Z,75.59
2023-03-20T18:43:46.496Z,75.62
2023-03-20T18:45:49.963Z,75.76
2023-03-20T18:47:53.172Z,75.33
2023-03-20T18:49:56.318Z,76.14
2023-03-20T18:52:01.101Z,75.97
2023-03-20T18:54:04.544Z,75.66
2023-03-20T18:56:11.283Z,75.54
2023-03-20T18:58:21.601Z,76.15
2023-03-20T19:00:27.755Z,76.04
2023-03-20T19:02:31.115Z,76.61
2023-03-20T19:04:35.315Z,77.49
2023-03-20T19:06:38.571Z,77.91
2023-03-20T19:08:43.495Z,78.01
2023-03-20T19:10:47.493Z,77.51
2023-03-20T19:12:51.323Z,76.56
2023-03-20T19:14:54.684Z,76.90
2023-03-20T19:16:57.916Z,77.77
2023-03-20T19:19:02.591Z,76.62
2023-03-20T19:21:06.335Z,77.16
2023-03-20T19:23:11.129Z,76.88
2023-03-20T19:25:15.845Z,76.72
2023-03-20T19:27:18.978Z,77.70
2023-03-20T19:29:22.140Z,77.72
2023-03-20T19:31:26.257Z,76.67
2023-03-20T19:33:29.429Z,78.25
2023-03-20T19:36:02.265Z,78.58
2023-03-20T19:37:56.898Z,77.34
2023-03-20T19:39:59.993Z,78.67
2023-03-20T19:42:30.426Z,78.33
2023-03-20T19:44:29.682Z,79.24
2023-03-20T19:46:41.905Z,78.99
2023-03-20T19:48:50.871Z,78.84
2023-03-20T19:50:54.655Z,78.13
2023-03-20T19:52:58.842Z,77.98
2023-03-20T19:55:03.630Z,77.56
2023-03-20T19:57:08.315Z,77.92
2023-03-20T19:59:12.612Z,77.48
2023-03-20T20:01:19.322Z,77.45
2023-03-20T20:03:25.308Z,77.59
2023-03-20T20:05:31.226Z,78.92
2023-03-20T20:08:12.863Z,78.25
2023-03-20T20:09:57.723Z,79.29
2023-03-20T20:12:00.820Z,78.77
2023-03-20T20:14:08.532Z,79.07
2023-03-20T20:16:12.349Z,79.11
2023-03-20T20:18:16.559Z,79.42
2023-03-20T20:20:25.096Z,80.51
2023-03-20T20:22:28.884Z,79.78
2023-03-20T20:24:32.217Z,79.16
2023-03-20T20:26:40.527Z,81.32
2023-03-20T20:28:50.971Z,81.03
2023-03-20T20:30:57.029Z,80.21
2023-03-20T20:33:04.941Z,81.05
2023-03-20T20:39:56.690Z,81.38
2023-03-20T20:41:59.920Z,82.47
2023-03-20T20:44:15.656Z,82.33
2023-03-20T20:46:21.380Z,82.58
2023-03-20T20:48:24.779Z,82.73
2023-03-20T20:50:29.228Z,82.04
2023-03-20T20:52:35.840Z,81.72
2023-03-20T20:54:41.728Z,82.37
2023-03-20T20:56:44.880Z,81.99
2023-03-20T20:58:47.956Z,82.48
2023-03-20T21:00:55.480Z,82.69
2023-03-20T21:03:00.173Z,82.09
2023-03-20T21:05:03.348Z,81.75
2023-03-20T21:07:10.326Z,81.53
2023-03-20T21:09:14.135Z,81.94
2023-03-20T21:11:17.735Z,83.06
2023-03-20T21:13:21.852Z,81.63
2023-03-20T21:15:25.279Z,81.89
2023-03-20T21:17:29.217Z,84.38
2023-03-20T21:19:35.988Z,85.02
2023-03-20T21:21:40.915Z,83.34
2023-03-20T21:23:44.332Z,83.33
2023-03-20T21:25:48.626Z,83.94
2023-03-20T21:27:52.270Z,83.60
2023-03-20T21:29:55.280Z,84.00
2023-03-20T21:31:58.450Z,84.96
2023-03-20T21:34:01.658Z,82.85
2023-03-20T21:36:07.749Z,83.60
2023-03-20T21:38:53.692Z,83.25
2023-03-20T21:40:34.169Z,83.75
2023-03-20T21:42:37.380Z,84.53
2023-03-20T21:47:50.888Z,84.26
2023-03-20T21:52:41.934Z,84.50
2023-03-20T21:57:23.005Z,84.86
2023-03-20T21:59:50.450Z,83.97
2023-03-20T22:01:58.704Z,84.42
2023-03-20T22:04:48.648Z,84.28
2023-03-20T22:07:13.095Z,85.68
2023-03-20T22:19:08.554Z,85.33
2023-03-20T22:21:29.652Z,84.39
2023-03-20T22:24:14.610Z,85.25
2023-03-20T22:26:11.012Z,84.29
2023-03-20T22:28:22.409Z,85.30
2023-03-20T22:33:22.748Z,86.54
2023-03-20T22:40:27.207Z,85.05
2023-03-20T22:44:58.651Z,84.96
2023-03-20T22:46:54.415Z,85.15
2023-03-20T22:48:57.598Z,86.12
2023-03-20T22:51:00.680Z,86.84
2023-03-20T22:53:03.840Z,86.06
2023-03-20T22:55:08.143Z,85.57
2023-03-20T22:57:12.746Z,86.78
2023-03-20T22:59:16.147Z,85.84
2023-03-20T23:01:19.276Z,86.24
2023-03-20T23:03:38.159Z,86.45
2023-03-20T23:05:43.967Z,85.88
2023-03-20T23:07:47.163Z,84.72
2023-03-20T23:09:50.491Z,85.85
2023-03-20T23:11:53.655Z,86.03
2023-03-20T23:13:58.357Z,85.06
2023-03-20T23:16:01.468Z,83.91
2023-03-20T23:18:04.563Z,86.10
2023-03-20T23:20:15.306Z,86.03
2023-03-20T23:22:20.065Z,86.41
2023-03-20T23:24:23.166Z,86.54
2023-03-20T23:26:26.290Z,85.32
2023-03-20T23:28:29.371Z,84.39
2023-03-20T23:30:44.904Z,84.02
2023-03-20T23:32:51.127Z,84.19
2023-03-20T23:34:54.202Z,84.92
2023-03-20T23:36:57.480Z,85.79
2023-03-20T23:39:00.563Z,85.14
2023-03-20T23:41:03.773Z,85.62
2023-03-20T23:43:06.819Z,85.60
2023-03-20T23:45:19.962Z,86.48
2023-03-20T23:47:27.635Z,86.48
2023-03-20T23:49:33.174Z,84.64
2023-03-20T23:51:36.272Z,85.24
2023-03-20T23:53:39.946Z,86.50
2023-03-20T23:55:43.149Z,85.55
2023-03-20T23:57:46.208Z,87.02
2023-03-20T23:59:49.265Z,86.93
